createdAt,value
2023-04-08T00:02:51.401Z,8.11
2023-04-08T00:07:55.397Z,8.11
2023-04-08T00:12:56.939Z,8.16
2023-04-08T00:17:58.521Z,8.18
2023-04-08T00:23:00.259Z,8.18
2023-04-08T00:28:01.842Z,8.21
2023-04-08T00:33:03.569Z,8.22
2023-04-08T00:38:08.050Z,8.22
2023-04-08T00:43:09.742Z,8.24
2023-04-08T00:48:11.620Z,8.24
2023-04-08T00:53:17.253Z,8.22
2023-04-08T00:58:19.402Z,8.27
2023-04-08T01:03:36.443Z,8.26
2023-04-08T01:08:41.054Z,8.10
2023-04-08T01:13:44.172Z,8.12
2023-04-08T01:18:48.047Z,8.18
2023-04-08T01:24:16.600Z,8.19
2023-04-08T01:29:19.324Z,8.10
2023-04-08T01:34:21.321Z,8.09
2023-04-08T01:39:23.914Z,8.11
2023-04-08T01:44:26.518Z,8.05
2023-04-08T01:49:30.547Z,8.04
2023-04-08T01:54:32.344Z,8.03
2023-04-08T01:59:37.788Z,8.04
2023-04-08T02:04:40.130Z,8.04
2023-04-08T02:09:42.336Z,8.04
2023-04-08T02:14:44.013Z,7.99
2023-04-08T02:20:00.592Z,7.95
2023-04-08T02:25:04.619Z,7.99
2023-04-08T02:30:08.138Z,7.97
2023-04-08T02:35:12.142Z,7.93
2023-04-08T02:40:23.734Z,7.99
2023-04-08T02:45:28.466Z,7.91
2023-04-08T02:50:30.132Z,7.80
2023-04-08T02:55:31.834Z,7.69
2023-04-08T03:00:33.545Z,7.69
2023-04-08T03:05:35.214Z,7.66
2023-04-08T03:10:36.768Z,7.72
2023-04-08T03:15:38.358Z,7.77
2023-04-08T03:20:39.874Z,7.81
2023-04-08T03:25:41.528Z,7.85
2023-04-08T03:30:43.152Z,7.92
2023-04-08T03:35:44.702Z,7.95
2023-04-08T03:40:46.404Z,7.94
2023-04-08T03:45:47.992Z,7.97
2023-04-08T03:50:49.541Z,8.01
2023-04-08T03:55:51.190Z,8.04
2023-04-08T04:00:52.706Z,8.03
2023-04-08T04:05:54.245Z,8.00
2023-04-08T04:10:55.753Z,8.00
2023-04-08T04:15:57.631Z,7.99
2023-04-08T04:20:59.190Z,7.95
2023-04-08T04:26:00.700Z,7.75
2023-04-08T04:31:02.320Z,7.57
2023-04-08T04:36:03.909Z,7.68
2023-04-08T04:41:05.622Z,7.74
2023-04-08T04:46:09.081Z,7.75
2023-04-08T04:51:10.784Z,7.78
2023-04-08T04:56:12.372Z,7.82
2023-04-08T05:01:13.927Z,7.82
2023-04-08T05:06:15.604Z,7.76
2023-04-08T05:11:18.481Z,7.75
2023-04-08T05:16:20.072Z,7.80
2023-04-08T05:21:21.681Z,7.86
2023-04-08T05:26:23.714Z,7.95
2023-04-08T05:31:25.733Z,8.05
2023-04-08T05:36:27.439Z,8.14
2023-04-08T05:41:29.093Z,8.18
2023-04-08T05:46:30.738Z,8.27
2023-04-08T05:51:32.306Z,8.40
2023-04-08T05:56:33.903Z,8.60
2023-04-08T06:01:35.520Z,8.82
2023-04-08T06:06:40.575Z,8.90
2023-04-08T06:11:42.141Z,9.04
2023-04-08T06:16:44.165Z,9.25
2023-04-08T06:21:45.827Z,9.43
2023-04-08T06:26:48.002Z,9.48
2023-04-08T06:31:50.395Z,9.56
2023-04-08T06:36:51.915Z,9.68
2023-04-08T06:41:54.791Z,9.82
2023-04-08T06:47:18.385Z,10.08
2023-04-08T06:52:19.929Z,10.22
2023-04-08T06:57:21.420Z,10.28
2023-04-08T07:02:23.369Z,10.43
2023-04-08T07:07:25.068Z,10.70
2023-04-08T07:12:26.583Z,10.99
2023-04-08T07:17:28.138Z,11.13
2023-04-08T07:22:29.771Z,11.04
2023-04-08T07:27:33.312Z,10.98
2023-04-08T07:32:35.412Z,10.87
2023-04-08T07:37:37.212Z,10.69
2023-04-08T07:42:40.721Z,10.42
2023-04-08T07:47:42.415Z,10.52
2023-04-08T07:52:43.952Z,10.88
2023-04-08T07:57:46.122Z,11.40
2023-04-08T08:02:48.663Z,11.52
2023-04-08T08:07:50.706Z,11.61
2023-04-08T08:12:52.211Z,11.55
2023-04-08T08:17:53.788Z,11.36
2023-04-08T08:22:57.570Z,11.36
2023-04-08T08:27:59.450Z,11.13
2023-04-08T08:33:01.061Z,10.85
2023-04-08T08:38:02.669Z,11.38
2023-04-08T08:43:04.242Z,12.05
2023-04-08T08:48:06.918Z,12.26
2023-04-08T08:53:09.577Z,12.18
2023-04-08T08:58:11.118Z,11.84
2023-04-08T09:03:24.858Z,11.36
2023-04-08T09:08:37.049Z,11.38
2023-04-08T09:13:39.082Z,11.70
2023-04-08T09:18:43.299Z,11.49
2023-04-08T09:23:45.969Z,11.89
2023-04-08T09:29:18.800Z,12.32
2023-04-08T09:34:28.392Z,12.58
2023-04-08T09:39:30.893Z,12.56
2023-04-08T09:44:33.952Z,12.09
2023-04-08T09:49:46.789Z,12.09
2023-04-08T09:54:55.604Z,12.54
2023-04-08T10:00:09.861Z,12.96
2023-04-08T10:05:18.509Z,13.29
2023-04-08T10:10:21.164Z,14.03
2023-04-08T10:15:33.247Z,14.28
2023-04-08T10:20:34.801Z,13.76
2023-04-08T10:25:46.393Z,14.12
2023-04-08T10:30:58.665Z,14.00
2023-04-08T10:36:07.168Z,13.94
2023-04-08T10:41:10.983Z,13.96
2023-04-08T10:46:12.575Z,13.81
2023-04-08T10:51:14.262Z,13.98
2023-04-08T10:56:17.873Z,14.37
2023-04-08T11:01:19.750Z,14.36
2023-04-08T11:06:21.351Z,14.49
2023-04-08T11:11:29.447Z,14.41
2023-04-08T11:16:31.189Z,14.32
2023-04-08T11:21:36.264Z,14.05
2023-04-08T11:26:38.563Z,13.94
2023-04-08T11:31:41.443Z,13.78
2023-04-08T11:36:43.048Z,13.26
2023-04-08T11:41:44.555Z,12.83
2023-04-08T11:46:57.184Z,12.56
2023-04-08T11:52:00.188Z,12.47
2023-04-08T11:57:03.055Z,12.36
2023-04-08T12:02:04.834Z,12.43
2023-04-08T12:07:06.369Z,12.50
2023-04-08T12:12:07.867Z,12.74
2023-04-08T12:17:09.418Z,13.00
2023-04-08T12:22:10.962Z,13.10
2023-04-08T12:27:12.684Z,13.36
2023-04-08T12:32:15.000Z,13.44
2023-04-08T12:37:16.494Z,13.39
2023-04-08T12:42:18.060Z,13.49
2023-04-08T12:47:20.099Z,13.55
2023-04-08T12:52:24.564Z,13.53
2023-04-08T12:57:27.315Z,13.89
2023-04-08T13:02:29.019Z,14.22
2023-04-08T13:07:35.300Z,14.06
2023-04-08T13:12:39.504Z,13.88
2023-04-08T13:17:42.194Z,13.51
2023-04-08T13:22:43.747Z,13.22
2023-04-08T13:27:45.857Z,12.56
2023-04-08T13:32:47.442Z,12.88
2023-04-08T13:37:49.048Z,13.27
2023-04-08T13:42:50.869Z,13.27
2023-04-08T13:47:52.469Z,13.41
2023-04-08T13:52:54.062Z,13.71
2023-04-08T13:57:56.078Z,13.33
2023-04-08T14:02:58.167Z,13.28
2023-04-08T14:07:59.688Z,13.09
2023-04-08T14:13:01.460Z,12.84
2023-04-08T14:18:03.300Z,12.86
2023-04-08T14:23:04.968Z,12.91
2023-04-08T14:28:06.493Z,12.72
2023-04-08T14:33:08.050Z,12.60
2023-04-08T14:38:10.126Z,12.62
2023-04-08T14:43:12.588Z,12.55
2023-04-08T14:48:14.113Z,12.67
2023-04-08T14:53:15.655Z,12.77
2023-04-08T14:58:17.257Z,12.49
2023-04-08T15:03:18.991Z,12.40
2023-04-08T15:08:30.730Z,12.54
2023-04-08T15:13:32.408Z,12.60
2023-04-08T15:18:33.901Z,12.63
2023-04-08T15:23:35.561Z,12.49
2023-04-08T15:28:38.166Z,12.51
2023-04-08T15:33:41.471Z,12.76
2023-04-08T15:38:42.970Z,12.64
2023-04-08T15:43:47.804Z,12.45
2023-04-08T15:48:50.892Z,12.38
2023-04-08T15:53:52.730Z,12.15
2023-04-08T15:58:54.481Z,11.99
2023-04-08T16:03:56.638Z,11.86
2023-04-08T16:08:58.213Z,11.75
2023-04-08T16:13:59.751Z,11.51
2023-04-08T16:19:02.264Z,11.34
2023-04-08T16:24:05.256Z,11.32
2023-04-08T16:29:07.513Z,11.31
2023-04-08T16:34:09.043Z,11.24
2023-04-08T16:39:10.716Z,11.18
2023-04-08T16:44:12.314Z,11.15
2023-04-08T16:49:15.555Z,11.20
2023-04-08T16:54:18.490Z,11.21
2023-04-08T16:59:19.996Z,11.12
2023-04-08T17:04:23.732Z,11.16
2023-04-08T17:09:25.631Z,11.12
2023-04-08T17:14:27.824Z,11.03
2023-04-08T17:19:29.397Z,10.90
2023-04-08T17:24:31.027Z,10.77
2023-04-08T17:29:32.559Z,10.68
2023-04-08T17:34:34.119Z,10.58
2023-04-08T17:39:40.656Z,10.50
2023-04-08T17:44:42.661Z,10.47
2023-04-08T17:49:44.245Z,10.45
2023-04-08T17:54:45.865Z,10.40
2023-04-08T17:59:47.414Z,10.37
2023-04-08T18:04:50.497Z,10.29
2023-04-08T18:09:52.280Z,10.21
2023-04-08T18:14:53.942Z,10.07
2023-04-08T18:19:55.539Z,10.00
2023-04-08T18:24:57.035Z,9.98
2023-04-08T18:29:58.546Z,9.95
2023-04-08T18:35:00.183Z,9.93
2023-04-08T18:40:02.811Z,9.88
2023-04-08T18:45:04.886Z,9.86
2023-04-08T18:50:06.707Z,9.82
2023-04-08T18:55:08.463Z,9.76
2023-04-08T19:00:10.644Z,9.65
2023-04-08T19:05:12.192Z,9.60
2023-04-08T19:10:13.752Z,9.57
2023-04-08T19:15:15.781Z,9.52
2023-04-08T19:20:17.460Z,9.48
2023-04-08T19:25:19.106Z,9.45
2023-04-08T19:30:20.806Z,9.41
2023-04-08T19:35:22.380Z,9.36
2023-04-08T19:40:24.097Z,9.28
2023-04-08T19:45:25.716Z,9.32
2023-04-08T19:50:28.171Z,9.33
2023-04-08T19:55:29.935Z,9.32
2023-04-08T20:00:31.572Z,9.27
2023-04-08T20:05:33.581Z,9.20
2023-04-08T20:10:35.763Z,9.11
2023-04-08T20:15:37.276Z,8.99
2023-04-08T20:20:38.954Z,8.88
2023-04-08T20:25:40.492Z,8.82
2023-04-08T20:30:41.993Z,8.83
2023-04-08T20:35:43.616Z,8.80
2023-04-08T20:40:45.522Z,8.75
2023-04-08T20:45:47.037Z,8.72
2023-04-08T20:50:49.082Z,8.76
2023-04-08T20:55:50.655Z,8.84
2023-04-08T21:00:52.222Z,8.89
2023-04-08T21:05:55.546Z,8.95
2023-04-08T21:10:57.147Z,8.97
2023-04-08T21:15:58.701Z,8.88
2023-04-08T21:21:00.426Z,8.86
2023-04-08T21:26:03.436Z,8.82
2023-04-08T21:31:12.384Z,8.73
2023-04-08T21:36:14.841Z,8.57
2023-04-08T21:41:17.266Z,8.52
2023-04-08T21:46:19.027Z,8.58
2023-04-08T21:51:23.069Z,8.65
2023-04-08T21:56:24.670Z,8.66
2023-04-08T22:01:26.641Z,8.62
2023-04-08T22:06:32.751Z,8.53
2023-04-08T22:11:34.635Z,8.46
2023-04-08T22:16:37.036Z,8.37
2023-04-08T22:21:38.606Z,8.31
2023-04-08T22:26:40.115Z,8.31
2023-04-08T22:31:41.666Z,8.33
2023-04-08T22:36:43.179Z,8.31
2023-04-08T22:41:47.122Z,8.33
2023-04-08T22:46:48.625Z,8.29
2023-04-08T22:51:50.893Z,8.18
2023-04-08T22:56:52.581Z,8.05
2023-04-08T23:01:54.256Z,8.00
2023-04-08T23:06:55.919Z,8.07
2023-04-08T23:11:58.233Z,8.10
2023-04-08T23:17:00.035Z,8.04
2023-04-08T23:22:01.532Z,7.97
2023-04-08T23:27:03.113Z,7.90
2023-04-08T23:32:04.900Z,7.87
2023-04-08T23:37:06.413Z,7.84
2023-04-08T23:42:07.933Z,7.81
2023-04-08T23:47:09.926Z,7.76
2023-04-08T23:52:11.431Z,7.69
2023-04-08T23:57:12.998Z,7.64
